createdAt,value
2023-03-27T00:00:08.455Z,78.99
2023-03-27T00:01:08.458Z,79.44
2023-03-27T00:02:08.570Z,80.43
2023-03-27T00:03:08.497Z,80.47
2023-03-27T00:04:08.472Z,79.33
2023-03-27T00:05:08.425Z,79.33
2023-03-27T00:06:08.377Z,79.64
2023-03-27T00:07:08.360Z,80.26
2023-03-27T00:08:08.354Z,80.05
2023-03-27T00:09:08.350Z,80.36
2023-03-27T00:10:08.381Z,79.85
2023-03-27T00:11:08.453Z,80.05
2023-03-27T00:12:08.330Z,80.26
2023-03-27T00:13:08.306Z,80.26
2023-03-27T00:14:08.304Z,80.47
2023-03-27T00:15:08.296Z,80.57
2023-03-27T00:16:08.309Z,80.78
2023-03-27T00:17:08.271Z,79.99
2023-03-27T00:18:08.294Z,80.36
2023-03-27T00:19:08.231Z,80.47
2023-03-27T00:20:08.247Z,80.51
2023-03-27T00:21:08.258Z,80.26
2023-03-27T00:22:08.213Z,80.30
2023-03-27T00:23:08.186Z,80.26
2023-03-27T00:24:08.192Z,80.68
2023-03-27T00:25:08.168Z,80.30
2023-03-27T00:26:08.185Z,80.40
2023-03-27T00:27:08.152Z,80.71
2023-03-27T00:28:08.161Z,80.82
2023-03-27T00:29:08.241Z,80.92
2023-03-27T00:30:08.109Z,81.13
2023-03-27T00:31:08.133Z,80.92
2023-03-27T00:32:08.104Z,80.82
2023-03-27T00:33:08.105Z,80.92
2023-03-27T00:34:08.075Z,80.51
2023-03-27T00:35:08.052Z,80.51
2023-03-27T00:36:08.081Z,80.92
2023-03-27T00:37:08.037Z,81.02
2023-03-27T00:38:08.027Z,80.82
2023-03-27T00:39:08.040Z,81.02
2023-03-27T00:40:08.024Z,81.34
2023-03-27T00:41:08.121Z,81.23
2023-03-27T00:42:07.970Z,81.23
2023-03-27T00:43:07.970Z,80.92
2023-03-27T00:44:07.962Z,81.34
2023-03-27T00:45:07.985Z,81.99
2023-03-27T00:46:08.126Z,81.85
2023-03-27T00:47:07.922Z,81.99
2023-03-27T00:48:08.006Z,81.99
2023-03-27T00:49:07.898Z,82.51
2023-03-27T00:50:07.899Z,82.48
2023-03-27T00:51:07.879Z,82.31
2023-03-27T00:52:07.917Z,82.20
2023-03-27T00:53:07.862Z,82.41
2023-03-27T00:54:07.834Z,82.68
2023-03-27T00:55:07.837Z,82.89
2023-03-27T00:56:07.812Z,82.79
2023-03-27T00:57:07.898Z,82.68
2023-03-27T00:58:07.819Z,82.79
2023-03-27T00:59:07.792Z,82.79
2023-03-27T01:00:09.508Z,83.34
2023-03-27T01:01:07.832Z,82.68
2023-03-27T01:02:07.753Z,82.72
2023-03-27T01:03:07.807Z,82.72
2023-03-27T01:04:07.733Z,82.93
2023-03-27T01:05:07.715Z,82.82
2023-03-27T01:06:07.731Z,83.03
2023-03-27T01:07:07.704Z,82.93
2023-03-27T01:08:07.718Z,83.45
2023-03-27T01:09:07.664Z,83.03
2023-03-27T01:10:07.682Z,83.55
2023-03-27T01:11:07.675Z,84.07
2023-03-27T01:12:07.645Z,83.76
2023-03-27T01:13:07.612Z,83.76
2023-03-27T01:14:07.620Z,83.76
2023-03-27T01:15:07.598Z,83.28
2023-03-27T01:16:07.646Z,83.90
2023-03-27T01:17:07.601Z,83.90
2023-03-27T01:18:07.613Z,84.11
2023-03-27T01:19:07.545Z,84.07
2023-03-27T01:20:07.545Z,83.76
2023-03-27T01:21:07.523Z,84.83
2023-03-27T01:22:07.567Z,84.07
2023-03-27T01:23:07.517Z,84.63
2023-03-27T01:24:07.536Z,84.69
2023-03-27T01:25:07.488Z,84.59
2023-03-27T01:26:07.509Z,84.42
2023-03-27T01:27:07.488Z,84.52
2023-03-27T01:28:07.448Z,84.94
2023-03-27T01:29:07.434Z,84.94
2023-03-27T01:30:07.447Z,84.73
2023-03-27T01:31:07.460Z,84.83
2023-03-27T01:32:07.402Z,84.11
2023-03-27T01:33:07.498Z,84.94
2023-03-27T01:34:07.393Z,84.83
2023-03-27T01:35:07.391Z,84.31
2023-03-27T01:36:07.376Z,84.31
2023-03-27T01:37:07.363Z,84.52
2023-03-27T01:38:07.362Z,84.63
2023-03-27T01:39:07.334Z,84.63
2023-03-27T01:40:07.339Z,84.52
2023-03-27T01:41:07.326Z,85.35
2023-03-27T01:42:07.294Z,84.88
2023-03-27T01:43:07.294Z,84.73
2023-03-27T01:44:07.289Z,84.88
2023-03-27T01:45:07.272Z,84.83
2023-03-27T01:46:07.331Z,84.94
2023-03-27T01:47:07.244Z,84.73
2023-03-27T01:48:07.276Z,85.19
2023-03-27T01:49:07.218Z,84.94
2023-03-27T01:50:07.206Z,84.98
2023-03-27T01:51:07.225Z,84.94
2023-03-27T01:52:07.180Z,84.94
2023-03-27T01:53:07.170Z,84.98
2023-03-27T01:54:07.156Z,85.19
2023-03-27T01:55:07.153Z,85.29
2023-03-27T01:56:07.198Z,85.50
2023-03-27T01:57:07.157Z,85.19
2023-03-27T01:58:07.133Z,85.19
2023-03-27T01:59:07.110Z,85.08
2023-03-27T02:00:17.494Z,85.19
2023-03-27T02:01:08.338Z,84.88
2023-03-27T02:02:07.064Z,84.98
2023-03-27T02:03:07.070Z,85.19
2023-03-27T02:04:07.071Z,84.98
2023-03-27T02:05:07.064Z,85.08
2023-03-27T02:06:07.033Z,85.14
2023-03-27T02:07:07.012Z,85.19
2023-03-27T02:08:07.013Z,85.19
2023-03-27T02:09:07.008Z,84.98
2023-03-27T02:10:06.989Z,85.29
2023-03-27T02:11:06.989Z,84.88
2023-03-27T02:12:06.974Z,84.67
2023-03-27T02:13:06.947Z,84.36
2023-03-27T02:14:06.948Z,84.77
2023-03-27T02:15:26.171Z,84.77
2023-03-27T02:16:07.948Z,84.63
2023-03-27T02:17:06.905Z,84.83
2023-03-27T02:18:06.894Z,85.08
2023-03-27T02:19:06.893Z,84.83
2023-03-27T02:20:06.865Z,84.77
2023-03-27T02:21:06.879Z,85.08
2023-03-27T02:22:06.842Z,85.08
2023-03-27T02:23:06.852Z,85.19
2023-03-27T02:24:06.832Z,85.29
2023-03-27T02:25:06.813Z,85.19
2023-03-27T02:26:06.811Z,85.33
2023-03-27T02:27:06.839Z,85.19
2023-03-27T02:28:06.811Z,85.08
2023-03-27T02:29:06.788Z,85.22
2023-03-27T02:30:06.759Z,85.19
2023-03-27T02:31:32.900Z,84.88
2023-03-27T02:32:07.806Z,84.91
2023-03-27T02:33:06.757Z,85.50
2023-03-27T02:34:06.713Z,85.71
2023-03-27T02:35:06.702Z,85.19
2023-03-27T02:36:07.253Z,85.53
2023-03-27T02:37:06.680Z,86.12
2023-03-27T02:38:06.675Z,86.22
2023-03-27T02:39:06.672Z,86.22
2023-03-27T02:40:06.662Z,86.22
2023-03-27T02:41:06.633Z,85.22
2023-03-27T02:42:06.650Z,85.33
2023-03-27T02:43:06.635Z,85.39
2023-03-27T02:44:06.644Z,85.12
2023-03-27T02:45:06.604Z,85.43
2023-03-27T02:46:06.617Z,85.53
2023-03-27T02:47:06.602Z,85.53
2023-03-27T02:48:06.620Z,86.16
2023-03-27T02:49:06.562Z,86.36
2023-03-27T02:50:06.540Z,86.16
2023-03-27T02:51:06.527Z,86.16
2023-03-27T02:52:06.511Z,85.85
2023-03-27T02:53:06.519Z,86.16
2023-03-27T02:54:06.501Z,85.95
2023-03-27T02:55:06.552Z,85.95
2023-03-27T02:56:06.483Z,86.05
2023-03-27T02:57:06.505Z,85.88
2023-03-27T02:58:06.470Z,85.74
2023-03-27T02:59:06.453Z,85.43
2023-03-27T03:00:06.455Z,86.16
2023-03-27T03:01:06.479Z,85.95
2023-03-27T03:02:06.452Z,86.05
2023-03-27T03:03:06.441Z,85.43
2023-03-27T03:04:06.384Z,85.64
2023-03-27T03:05:06.392Z,85.53
2023-03-27T03:06:06.355Z,85.53
2023-03-27T03:07:06.454Z,86.05
2023-03-27T03:08:06.335Z,86.05
2023-03-27T03:09:06.339Z,86.19
2023-03-27T03:10:07.003Z,85.85
2023-03-27T03:11:06.318Z,85.64
2023-03-27T03:12:06.315Z,85.88
2023-03-27T03:13:06.291Z,85.95
2023-03-27T03:14:06.288Z,86.05
2023-03-27T03:15:06.264Z,85.88
2023-03-27T03:16:06.298Z,85.85
2023-03-27T03:17:06.270Z,85.88
2023-03-27T03:18:06.282Z,85.85
2023-03-27T03:19:06.230Z,85.88
2023-03-27T03:20:06.230Z,85.85
2023-03-27T03:21:06.211Z,86.19
2023-03-27T03:22:06.180Z,85.68
2023-03-27T03:23:06.184Z,86.09
2023-03-27T03:24:06.156Z,86.19
2023-03-27T03:25:06.144Z,86.19
2023-03-27T03:26:06.145Z,85.88
2023-03-27T03:27:06.137Z,85.99
2023-03-27T03:28:06.415Z,85.47
2023-03-27T03:29:06.099Z,86.41
2023-03-27T03:30:06.103Z,86.51
2023-03-27T03:31:06.137Z,86.41
2023-03-27T03:32:06.087Z,86.19
2023-03-27T03:33:06.144Z,86.41
2023-03-27T03:34:06.064Z,86.30
2023-03-27T03:35:06.047Z,86.19
2023-03-27T03:36:06.101Z,86.41
2023-03-27T03:37:06.013Z,86.19
2023-03-27T03:38:06.031Z,86.41
2023-03-27T03:39:06.008Z,86.51
2023-03-27T03:40:05.991Z,85.88
2023-03-27T03:41:05.970Z,86.30
2023-03-27T03:42:05.970Z,86.34
2023-03-27T03:43:05.980Z,86.19
2023-03-27T03:44:05.930Z,86.03
2023-03-27T03:45:05.938Z,87.13
2023-03-27T03:46:05.988Z,86.09
2023-03-27T03:47:05.914Z,86.65
2023-03-27T03:48:05.963Z,86.82
2023-03-27T03:49:05.881Z,87.13
2023-03-27T03:50:05.877Z,87.24
2023-03-27T03:51:05.860Z,86.93
2023-03-27T03:52:05.846Z,86.96
2023-03-27T03:53:05.863Z,86.96
2023-03-27T03:54:05.820Z,86.86
2023-03-27T03:55:05.834Z,87.24
2023-03-27T03:56:05.810Z,87.17
2023-03-27T03:57:05.834Z,87.03
2023-03-27T03:58:05.797Z,87.07
2023-03-27T03:59:05.763Z,87.17
2023-03-27T04:00:05.764Z,86.96
2023-03-27T04:01:05.746Z,86.96
2023-03-27T04:02:05.766Z,87.17
2023-03-27T04:03:05.820Z,87.32
2023-03-27T04:04:05.739Z,87.17
2023-03-27T04:05:08.705Z,87.27
2023-03-27T04:06:05.820Z,87.27
2023-03-27T04:07:05.712Z,87.17
2023-03-27T04:08:05.708Z,87.69
2023-03-27T04:09:05.652Z,87.59
2023-03-27T04:10:05.650Z,87.38
2023-03-27T04:11:05.642Z,87.69
2023-03-27T04:12:05.618Z,88.31
2023-03-27T04:13:05.640Z,88.10
2023-03-27T04:14:05.603Z,88.10
2023-03-27T04:15:05.610Z,88.00
2023-03-27T04:16:05.614Z,88.00
2023-03-27T04:17:05.567Z,88.31
2023-03-27T04:18:05.680Z,88.10
2023-03-27T04:19:05.541Z,87.90
2023-03-27T04:20:05.564Z,88.15
2023-03-27T04:21:05.529Z,88.00
2023-03-27T04:22:05.505Z,87.79
2023-03-27T04:23:05.521Z,88.15
2023-03-27T04:24:05.496Z,87.84
2023-03-27T04:25:05.472Z,88.00
2023-03-27T04:26:05.498Z,88.10
2023-03-27T04:27:05.460Z,88.42
2023-03-27T04:28:05.487Z,88.62
2023-03-27T04:29:05.439Z,88.10
2023-03-27T04:30:05.417Z,88.35
2023-03-27T04:31:05.449Z,88.52
2023-03-27T04:32:05.406Z,88.31
2023-03-27T04:33:06.275Z,88.10
2023-03-27T04:34:05.394Z,88.56
2023-03-27T04:35:05.376Z,88.35
2023-03-27T04:36:07.789Z,88.42
2023-03-27T04:37:05.366Z,88.10
2023-03-27T04:38:05.386Z,88.21
2023-03-27T04:39:05.357Z,88.31
2023-03-27T04:40:05.336Z,88.42
2023-03-27T04:41:05.308Z,88.31
2023-03-27T04:42:05.284Z,88.35
2023-03-27T04:43:05.303Z,88.46
2023-03-27T04:44:05.283Z,88.46
2023-03-27T04:45:05.283Z,88.67
2023-03-27T04:46:05.256Z,88.77
2023-03-27T04:47:06.776Z,88.42
2023-03-27T04:48:05.346Z,88.56
2023-03-27T04:49:05.234Z,88.46
2023-03-27T04:50:05.200Z,88.35
2023-03-27T04:51:05.197Z,88.35
2023-03-27T04:52:05.210Z,88.04
2023-03-27T04:53:05.184Z,88.87
2023-03-27T04:54:05.205Z,88.56
2023-03-27T04:55:05.170Z,87.94
2023-03-27T04:56:05.143Z,88.46
2023-03-27T04:57:05.301Z,88.87
2023-03-27T04:58:05.138Z,88.98
2023-03-27T04:59:05.116Z,88.67
2023-03-27T05:00:05.092Z,88.77
2023-03-27T05:01:05.094Z,88.19
2023-03-27T05:02:05.075Z,88.87
2023-03-27T05:03:05.185Z,88.56
2023-03-27T05:04:05.126Z,88.25
2023-03-27T05:05:05.048Z,88.67
2023-03-27T05:06:05.053Z,88.81
2023-03-27T05:07:05.018Z,89.92
2023-03-27T05:08:05.096Z,88.77
2023-03-27T05:09:04.983Z,88.67
2023-03-27T05:10:04.972Z,88.92
2023-03-27T05:11:04.986Z,88.50
2023-03-27T05:12:04.960Z,89.12
2023-03-27T05:13:04.964Z,88.98
2023-03-27T05:14:04.948Z,88.98
2023-03-27T05:15:04.927Z,88.98
2023-03-27T05:16:04.924Z,88.92
2023-03-27T05:17:04.908Z,89.43
2023-03-27T05:18:05.009Z,88.92
2023-03-27T05:19:04.892Z,89.54
2023-03-27T05:20:04.855Z,88.98
2023-03-27T05:21:04.870Z,89.95
2023-03-27T05:22:04.836Z,90.06
2023-03-27T05:23:04.860Z,89.64
2023-03-27T05:24:04.882Z,89.64
2023-03-27T05:25:04.807Z,89.95
2023-03-27T05:26:04.804Z,89.85
2023-03-27T05:27:04.796Z,89.60
2023-03-27T05:28:04.779Z,89.64
2023-03-27T05:29:04.777Z,89.70
2023-03-27T05:30:04.755Z,89.85
2023-03-27T05:31:04.787Z,89.95
2023-03-27T05:32:04.728Z,89.75
2023-03-27T05:33:04.772Z,89.64
2023-03-27T05:34:04.718Z,89.95
2023-03-27T05:35:04.850Z,89.95
2023-03-27T05:36:04.749Z,90.02
2023-03-27T05:37:04.676Z,89.70
2023-03-27T05:38:04.664Z,89.70
2023-03-27T05:39:04.651Z,89.81
2023-03-27T05:40:04.720Z,89.92
2023-03-27T05:41:04.644Z,89.92
2023-03-27T05:42:04.622Z,89.92
2023-03-27T05:43:04.651Z,89.70
2023-03-27T05:44:04.585Z,89.92
2023-03-27T05:45:04.582Z,89.50
2023-03-27T05:46:04.618Z,89.98
2023-03-27T05:47:04.563Z,89.87
2023-03-27T05:48:04.673Z,89.77
2023-03-27T05:49:04.554Z,89.87
2023-03-27T05:50:04.531Z,89.04
2023-03-27T05:51:04.516Z,88.94
2023-03-27T05:52:04.517Z,88.94
2023-03-27T05:53:04.521Z,88.84
2023-03-27T05:54:04.515Z,88.94
2023-03-27T05:55:04.475Z,88.79
2023-03-27T05:56:04.484Z,89.00
2023-03-27T05:57:04.534Z,89.11
2023-03-27T05:58:04.444Z,88.69
2023-03-27T05:59:04.507Z,88.28
2023-03-27T06:00:04.436Z,89.06
2023-03-27T06:01:04.427Z,89.37
2023-03-27T06:02:04.415Z,88.75
2023-03-27T06:03:04.550Z,88.75
2023-03-27T06:04:04.571Z,88.09
2023-03-27T06:05:04.359Z,88.61
2023-03-27T06:06:04.352Z,88.40
2023-03-27T06:07:04.347Z,88.51
2023-03-27T06:08:04.547Z,88.57
2023-03-27T06:09:04.322Z,88.46
2023-03-27T06:10:04.307Z,88.67
2023-03-27T06:11:04.311Z,87.84
2023-03-27T06:12:04.390Z,88.63
2023-03-27T06:13:04.545Z,87.90
2023-03-27T06:14:04.262Z,87.76
2023-03-27T06:15:04.253Z,87.87
2023-03-27T06:16:04.265Z,87.62
2023-03-27T06:17:04.249Z,86.68
2023-03-27T06:18:04.486Z,86.96
2023-03-27T06:19:04.223Z,86.33
2023-03-27T06:20:04.194Z,85.82
2023-03-27T06:21:04.194Z,85.57
2023-03-27T06:22:04.186Z,85.26
2023-03-27T06:23:04.542Z,84.74
2023-03-27T06:24:04.171Z,84.12
2023-03-27T06:25:04.149Z,84.53
2023-03-27T06:26:04.137Z,84.43
2023-03-27T06:27:04.106Z,84.12
2023-03-27T06:28:04.189Z,83.56
2023-03-27T06:29:08.034Z,83.67
2023-03-27T06:30:04.104Z,83.36
2023-03-27T06:31:04.149Z,83.36
2023-03-27T06:32:04.055Z,83.25
2023-03-27T06:33:04.129Z,82.84
2023-03-27T06:34:04.053Z,82.84
2023-03-27T06:35:04.033Z,83.50
2023-03-27T06:36:04.057Z,83.15
2023-03-27T06:37:04.004Z,83.46
2023-03-27T06:38:04.064Z,83.71
2023-03-27T06:39:03.972Z,83.71
2023-03-27T06:40:03.968Z,84.19
2023-03-27T06:41:03.976Z,83.81
2023-03-27T06:42:03.947Z,83.81
2023-03-27T06:43:04.240Z,83.81
2023-03-27T06:44:03.956Z,83.71
2023-03-27T06:45:03.907Z,83.81
2023-03-27T06:46:03.951Z,83.67
2023-03-27T06:47:04.440Z,83.67
2023-03-27T06:48:17.932Z,83.46
2023-03-27T06:49:04.891Z,83.11
2023-03-27T06:50:03.871Z,83.22
2023-03-27T06:51:03.859Z,83.73
2023-03-27T06:52:03.851Z,83.18
2023-03-27T06:53:05.846Z,83.53
2023-03-27T06:54:03.810Z,82.87
2023-03-27T06:55:03.799Z,83.28
2023-03-27T06:56:03.810Z,82.35
2023-03-27T06:57:03.929Z,82.52
2023-03-27T06:58:03.804Z,81.38
2023-03-27T06:59:03.772Z,82.21
2023-03-27T07:00:03.876Z,82.10
2023-03-27T07:01:03.758Z,82.10
2023-03-27T07:02:03.756Z,82.00
2023-03-27T07:03:03.783Z,81.94
2023-03-27T07:04:03.711Z,81.52
2023-03-27T07:05:05.302Z,81.32
2023-03-27T07:06:03.799Z,81.73
2023-03-27T07:07:03.669Z,82.04
2023-03-27T07:08:15.123Z,81.84
2023-03-27T07:09:04.660Z,82.04
2023-03-27T07:10:03.627Z,81.52
2023-03-27T07:11:11.727Z,82.25
2023-03-27T07:12:04.666Z,82.04
2023-03-27T07:13:03.606Z,82.76
2023-03-27T07:14:03.602Z,82.31
2023-03-27T07:15:03.578Z,82.10
2023-03-27T07:16:03.862Z,82.00
2023-03-27T07:17:03.552Z,81.63
2023-03-27T07:18:03.610Z,81.94
2023-03-27T07:19:03.537Z,81.80
2023-03-27T07:20:03.524Z,81.49
2023-03-27T07:21:03.526Z,81.49
2023-03-27T07:22:03.498Z,81.07
2023-03-27T07:23:03.492Z,80.42
2023-03-27T07:24:03.475Z,80.52
2023-03-27T07:25:03.461Z,80.56
2023-03-27T07:26:03.459Z,80.83
2023-03-27T07:27:03.437Z,80.58
2023-03-27T07:28:05.689Z,80.28
2023-03-27T07:29:03.437Z,80.24
2023-03-27T07:30:03.411Z,80.30
2023-03-27T07:31:03.997Z,79.17
2023-03-27T07:32:07.107Z,78.97
2023-03-27T07:33:04.432Z,79.24
2023-03-27T07:34:03.555Z,78.62
2023-03-27T07:35:03.358Z,77.90
2023-03-27T07:36:03.387Z,77.38
2023-03-27T07:37:03.322Z,77.35
2023-03-27T07:38:03.312Z,77.14
2023-03-27T07:39:03.329Z,76.93
2023-03-27T07:40:03.291Z,76.42
2023-03-27T07:41:03.302Z,76.73
2023-03-27T07:42:03.394Z,76.07
2023-03-27T07:43:03.264Z,76.07
2023-03-27T07:44:03.270Z,75.67
2023-03-27T07:45:04.557Z,75.97
2023-03-27T07:46:03.365Z,75.46
2023-03-27T07:47:03.298Z,75.52
2023-03-27T07:48:03.378Z,75.12
2023-03-27T07:49:03.199Z,75.39
2023-03-27T07:50:03.176Z,75.70
2023-03-27T07:51:13.296Z,75.39
2023-03-27T07:52:04.180Z,75.15
2023-03-27T07:53:03.166Z,74.19
2023-03-27T07:54:03.161Z,73.06
2023-03-27T07:55:03.132Z,72.75
2023-03-27T07:56:03.116Z,73.06
2023-03-27T07:57:03.166Z,72.61
2023-03-27T07:58:03.673Z,72.51
2023-03-27T07:59:03.094Z,72.92
2023-03-27T08:00:03.069Z,71.86
2023-03-27T08:01:03.057Z,71.66
2023-03-27T08:02:03.056Z,71.04
2023-03-27T08:03:03.187Z,70.80
2023-03-27T08:04:03.217Z,70.80
2023-03-27T08:05:03.198Z,70.56
2023-03-27T08:06:03.011Z,70.46
2023-03-27T08:07:02.994Z,70.22
2023-03-27T08:08:02.980Z,69.92
2023-03-27T08:09:03.102Z,69.89
2023-03-27T08:10:02.987Z,69.57
2023-03-27T08:11:02.947Z,69.17
2023-03-27T08:12:02.937Z,68.01
2023-03-27T08:13:02.926Z,67.90
2023-03-27T08:14:02.962Z,66.75
2023-03-27T08:15:02.908Z,65.11
2023-03-27T08:16:02.899Z,65.83
2023-03-27T08:17:12.819Z,64.39
2023-03-27T08:18:03.909Z,65.14
2023-03-27T08:19:02.859Z,64.83
2023-03-27T08:20:02.885Z,65.48
2023-03-27T08:21:02.840Z,65.78
2023-03-27T08:22:02.828Z,65.17
2023-03-27T08:23:02.817Z,65.48
2023-03-27T08:24:02.825Z,64.94
2023-03-27T08:25:02.774Z,64.42
2023-03-27T08:26:02.806Z,63.88
2023-03-27T08:27:02.767Z,63.88
2023-03-27T08:28:02.767Z,64.09
2023-03-27T08:29:02.731Z,63.95
2023-03-27T08:30:02.741Z,63.41
2023-03-27T08:31:03.355Z,62.73
2023-03-27T08:32:02.712Z,62.35
2023-03-27T08:33:02.777Z,63.13
2023-03-27T08:34:02.719Z,62.93
2023-03-27T08:35:02.677Z,63.03
2023-03-27T08:36:02.738Z,62.11
2023-03-27T08:37:02.645Z,62.76
2023-03-27T08:38:02.641Z,63.37
2023-03-27T08:39:02.774Z,63.17
2023-03-27T08:40:02.618Z,63.78
2023-03-27T08:41:02.610Z,63.47
2023-03-27T08:42:02.601Z,62.52
2023-03-27T08:43:02.582Z,62.29
2023-03-27T08:44:02.602Z,62.73
2023-03-27T08:45:02.576Z,62.70
2023-03-27T08:46:02.569Z,62.16
2023-03-27T08:47:02.564Z,62.23
2023-03-27T08:48:02.581Z,61.99
2023-03-27T08:49:02.526Z,60.13
2023-03-27T08:50:02.527Z,60.00
2023-03-27T08:51:02.524Z,59.52
2023-03-27T08:52:02.502Z,58.39
2023-03-27T08:53:02.479Z,57.17
2023-03-27T08:54:02.483Z,57.91
2023-03-27T08:55:02.459Z,57.84
2023-03-27T08:56:02.444Z,58.48
2023-03-27T08:57:02.506Z,58.89
2023-03-27T08:58:02.426Z,58.98
2023-03-27T08:59:02.456Z,59.83
2023-03-27T09:00:02.423Z,60.85
2023-03-27T09:01:02.390Z,60.24
2023-03-27T09:02:02.503Z,59.42
2023-03-27T09:03:02.499Z,58.63
2023-03-27T09:04:02.479Z,58.35
2023-03-27T09:05:02.336Z,58.53
2023-03-27T09:06:02.327Z,58.73
2023-03-27T09:07:02.339Z,58.84
2023-03-27T09:08:02.346Z,59.07
2023-03-27T09:09:02.317Z,58.56
2023-03-27T09:10:02.292Z,58.58
2023-03-27T09:11:02.288Z,58.72
2023-03-27T09:12:02.257Z,59.09
2023-03-27T09:13:02.262Z,59.46
2023-03-27T09:14:02.282Z,61.00
2023-03-27T09:15:02.235Z,60.72
2023-03-27T09:16:02.363Z,61.02
2023-03-27T09:17:02.195Z,62.08
2023-03-27T09:18:02.282Z,63.00
2023-03-27T09:19:02.226Z,63.13
2023-03-27T09:20:02.174Z,63.89
2023-03-27T09:21:02.158Z,64.60
2023-03-27T09:22:02.143Z,64.94
2023-03-27T09:23:02.135Z,65.77
2023-03-27T09:24:02.164Z,65.48
2023-03-27T09:25:02.121Z,66.31
2023-03-27T09:26:02.106Z,65.92
2023-03-27T09:27:07.487Z,66.34
2023-03-27T09:28:03.084Z,67.26
2023-03-27T09:29:02.059Z,67.26
2023-03-27T09:30:04.959Z,66.34
2023-03-27T09:31:02.085Z,66.44
2023-03-27T09:32:02.031Z,65.83
2023-03-27T09:33:02.102Z,66.31
2023-03-27T09:34:02.031Z,67.16
2023-03-27T09:35:02.028Z,66.96
2023-03-27T09:36:02.070Z,66.69
2023-03-27T09:37:01.992Z,65.94
2023-03-27T09:38:01.962Z,64.98
2023-03-27T09:39:01.967Z,64.61
2023-03-27T09:40:02.006Z,63.28
2023-03-27T09:41:01.940Z,62.84
2023-03-27T09:42:07.250Z,61.51
2023-03-27T09:43:02.915Z,62.63
2023-03-27T09:44:01.906Z,61.02
2023-03-27T09:45:01.927Z,60.92
2023-03-27T09:46:01.877Z,62.05
2023-03-27T09:47:01.910Z,61.13
2023-03-27T09:48:01.906Z,60.64
2023-03-27T09:49:01.851Z,60.33
2023-03-27T09:50:01.865Z,60.95
2023-03-27T09:51:01.814Z,59.92
2023-03-27T09:52:01.821Z,60.31
2023-03-27T09:53:01.794Z,60.51
2023-03-27T09:54:01.797Z,59.05
2023-03-27T09:55:01.790Z,59.00
2023-03-27T09:56:03.364Z,58.38
2023-03-27T09:57:01.859Z,58.02
2023-03-27T09:58:01.743Z,58.61
2023-03-27T09:59:01.740Z,56.51
2023-03-27T10:00:01.728Z,55.15
2023-03-27T10:01:01.793Z,54.51
2023-03-27T10:02:01.711Z,52.93
2023-03-27T10:03:01.811Z,53.72
2023-03-27T10:04:01.732Z,54.03
2023-03-27T10:05:01.687Z,53.11
2023-03-27T10:06:01.651Z,53.55
2023-03-27T10:07:01.732Z,53.55
2023-03-27T10:08:01.644Z,53.27
2023-03-27T10:09:01.614Z,53.64
2023-03-27T10:10:01.670Z,54.16
2023-03-27T10:11:01.618Z,53.24
2023-03-27T10:12:01.604Z,53.24
2023-03-27T10:13:01.579Z,52.98
2023-03-27T10:14:01.599Z,53.62
2023-03-27T10:15:01.840Z,53.44
2023-03-27T10:16:01.561Z,53.75
2023-03-27T10:17:01.609Z,54.33
2023-03-27T10:18:01.573Z,53.72
2023-03-27T10:19:01.516Z,54.00
2023-03-27T10:20:01.522Z,53.03
2023-03-27T10:21:01.502Z,53.11
2023-03-27T10:22:01.536Z,52.88
2023-03-27T10:23:01.542Z,51.05
2023-03-27T10:24:01.476Z,51.05
2023-03-27T10:25:01.536Z,50.46
2023-03-27T10:26:01.457Z,51.10
2023-03-27T10:27:01.539Z,52.45
2023-03-27T10:28:01.480Z,52.88
2023-03-27T10:29:01.424Z,52.60
2023-03-27T10:30:01.505Z,54.23
2023-03-27T10:31:01.380Z,54.77
2023-03-27T10:32:01.531Z,54.80
2023-03-27T10:33:01.647Z,54.80
2023-03-27T10:34:01.331Z,54.92
2023-03-27T10:35:01.344Z,54.31
2023-03-27T10:36:01.345Z,55.30
2023-03-27T10:37:01.330Z,55.05
2023-03-27T10:38:01.293Z,54.31
2023-03-27T10:39:01.284Z,54.16
2023-03-27T10:40:01.298Z,54.05
2023-03-27T10:41:01.296Z,53.42
2023-03-27T10:42:01.251Z,51.79
2023-03-27T10:43:01.259Z,51.91
2023-03-27T10:44:01.255Z,52.73
2023-03-27T10:45:01.259Z,53.27
2023-03-27T10:46:01.276Z,54.72
2023-03-27T10:47:01.288Z,55.46
2023-03-27T10:48:01.232Z,55.89
2023-03-27T10:49:01.167Z,56.53
2023-03-27T10:50:01.209Z,57.07
2023-03-27T10:51:01.160Z,56.59
2023-03-27T10:52:01.220Z,57.02
2023-03-27T10:53:01.220Z,57.12
2023-03-27T10:54:01.205Z,57.56
2023-03-27T10:55:01.158Z,57.79
2023-03-27T10:56:01.104Z,58.61
2023-03-27T10:57:01.098Z,58.69
2023-03-27T10:58:01.077Z,58.86
2023-03-27T10:59:01.074Z,58.94
2023-03-27T11:00:01.084Z,58.29
2023-03-27T11:01:01.210Z,56.81
2023-03-27T11:02:01.060Z,56.58
2023-03-27T11:03:01.054Z,55.94
2023-03-27T11:04:01.036Z,55.10
2023-03-27T11:05:01.030Z,53.64
2023-03-27T11:06:00.988Z,53.72
2023-03-27T11:07:00.982Z,53.70
2023-03-27T11:08:00.945Z,52.35
2023-03-27T11:09:00.945Z,51.51
2023-03-27T11:10:00.946Z,50.67
2023-03-27T11:11:00.932Z,49.12
2023-03-27T11:12:00.928Z,50.22
2023-03-27T11:13:00.924Z,50.50
2023-03-27T11:14:00.888Z,49.18
2023-03-27T11:15:00.870Z,49.18
2023-03-27T11:16:00.889Z,47.33
2023-03-27T11:17:00.935Z,48.65
2023-03-27T11:18:00.880Z,46.80
2023-03-27T11:19:00.841Z,47.20
2023-03-27T11:20:00.837Z,47.00
2023-03-27T11:21:00.851Z,46.90
2023-03-27T11:22:00.805Z,46.06
2023-03-27T11:23:00.797Z,44.38
2023-03-27T11:24:00.827Z,45.50
2023-03-27T11:25:00.812Z,46.82
2023-03-27T11:26:00.768Z,47.20
2023-03-27T11:27:00.736Z,47.22
2023-03-27T11:28:00.733Z,47.22
2023-03-27T11:29:00.733Z,47.33
2023-03-27T11:30:00.714Z,46.92
2023-03-27T11:31:00.827Z,48.16
2023-03-27T11:32:01.775Z,48.69
2023-03-27T11:33:00.700Z,49.45
2023-03-27T11:34:00.685Z,49.07
2023-03-27T11:35:02.714Z,51.20
2023-03-27T11:36:00.713Z,51.03
2023-03-27T11:37:00.644Z,49.52
2023-03-27T11:38:00.633Z,50.34
2023-03-27T11:39:00.606Z,50.97
2023-03-27T11:40:00.606Z,51.07
2023-03-27T11:41:00.610Z,51.68
2023-03-27T11:42:00.573Z,51.99
2023-03-27T11:43:00.583Z,51.51
2023-03-27T11:44:00.572Z,51.81
2023-03-27T11:45:00.539Z,51.10
2023-03-27T11:46:00.556Z,50.79
2023-03-27T11:47:00.534Z,52.32
2023-03-27T11:48:00.544Z,51.51
2023-03-27T11:49:00.524Z,52.17
2023-03-27T11:50:00.512Z,52.45
2023-03-27T11:51:00.509Z,52.35
2023-03-27T11:52:00.474Z,51.20
2023-03-27T11:53:00.457Z,50.78
2023-03-27T11:54:00.434Z,50.55
2023-03-27T11:55:00.432Z,51.14
2023-03-27T11:56:00.455Z,49.18
2023-03-27T11:57:00.475Z,49.66
2023-03-27T11:58:00.389Z,47.41
2023-03-27T11:59:00.398Z,47.02
2023-03-27T12:00:00.368Z,47.22
2023-03-27T12:01:00.363Z,46.82
2023-03-27T12:02:00.440Z,46.94
2023-03-27T12:03:00.469Z,47.27
2023-03-27T12:04:00.519Z,47.27
2023-03-27T12:05:00.323Z,47.50
2023-03-27T12:06:00.338Z,47.21
2023-03-27T12:07:04.818Z,49.07
2023-03-27T12:08:01.287Z,49.48
2023-03-27T12:09:00.283Z,51.05
2023-03-27T12:10:00.255Z,52.75
2023-03-27T12:11:00.294Z,54.95
2023-03-27T12:12:00.258Z,56.20
2023-03-27T12:13:00.259Z,58.37
2023-03-27T12:14:02.265Z,61.57
2023-03-27T12:15:00.211Z,63.03
2023-03-27T12:16:00.251Z,65.11
2023-03-27T12:17:00.178Z,66.47
2023-03-27T12:18:00.324Z,66.91
2023-03-27T12:19:05.997Z,68.48
2023-03-27T12:20:01.288Z,69.33
2023-03-27T12:21:00.385Z,70.80
2023-03-27T12:22:00.129Z,72.58
2023-03-27T12:23:00.108Z,73.33
2023-03-27T12:24:00.144Z,73.74
2023-03-27T12:25:00.350Z,74.19
2023-03-27T12:26:00.118Z,74.70
2023-03-27T12:27:00.136Z,75.52
2023-03-27T12:28:00.086Z,76.31
2023-03-27T12:29:00.084Z,76.86
2023-03-27T12:30:00.052Z,75.90
2023-03-27T12:31:00.027Z,76.27
2023-03-27T12:32:00.053Z,76.54
2023-03-27T12:33:00.415Z,75.48
2023-03-27T12:34:00.002Z,73.10
2023-03-27T12:35:00.020Z,70.91
2023-03-27T12:36:00.018Z,72.65
2023-03-27T12:36:59.986Z,70.50
2023-03-27T12:37:59.982Z,70.64
2023-03-27T12:38:59.959Z,70.03
2023-03-27T12:39:59.927Z,69.31
2023-03-27T12:40:59.920Z,70.47
2023-03-27T12:41:59.908Z,70.94
2023-03-27T12:42:59.905Z,71.56
2023-03-27T12:43:59.907Z,70.33
2023-03-27T12:45:00.085Z,70.23
2023-03-27T12:45:59.872Z,70.53
2023-03-27T12:46:59.864Z,70.23
2023-03-27T12:48:00.072Z,69.10
2023-03-27T12:48:59.815Z,67.77
2023-03-27T12:49:59.811Z,68.11
2023-03-27T12:51:00.256Z,68.18
2023-03-27T12:51:59.903Z,66.72